sensor_id;sensor_type;location;lat;lon;timestamp;noise_LAeq;noise_LA_min;noise_LA_max;noise_LA01;noise_LA95
60872;Laerm;46714;50.118;14.462;2024-02-04T00:01:41;67.73;57.91;75.53;;
60872;Laerm;46714;50.118;14.462;2024-02-04T00:04:07;67.12;54.48;75.41;;
60872;Laerm;46714;50.118;14.462;2024-02-04T00:06:32;68.67;58.74;79.23;;
60872;Laerm;46714;50.118;14.462;2024-02-04T00:08:57;69.49;61.54;76.45;;
60872;Laerm;46714;50.118;14.462;2024-02-04T00:11:23;67.67;55.26;76.76;;
60872;Laerm;46714;50.118;14.462;2024-02-04T00:13:48;69.86;55.10;77.65;;
60872;Laerm;46714;50.118;14.462;2024-02-04T00:16:14;68.27;55.39;74.34;;
60872;Laerm;46714;50.118;14.462;2024-02-04T00:18:39;65.54;46.95;73.27;;
60872;Laerm;46714;50.118;14.462;2024-02-04T00:21:05;68.15;54.64;75.33;;
60872;Laerm;46714;50.118;14.462;2024-02-04T00:23:30;66.89;56.46;74.51;;
60872;Laerm;46714;50.118;14.462;2024-02-04T00:25:56;66.84;53.32;74.95;;
60872;Laerm;46714;50.118;14.462;2024-02-04T00:28:21;68.71;61.97;75.86;;
60872;Laerm;46714;50.118;14.462;2024-02-04T00:30:46;66.41;49.87;73.48;;
60872;Laerm;46714;50.118;14.462;2024-02-04T00:33:14;67.84;54.31;74.87;;
60872;Laerm;46714;50.118;14.462;2024-02-04T00:35:39;67.92;54.11;73.95;;
60872;Laerm;46714;50.118;14.462;2024-02-04T00:38:05;67.97;57.67;74.29;;
60872;Laerm;46714;50.118;14.462;2024-02-04T00:40:30;67.91;57.33;76.63;;
60872;Laerm;46714;50.118;14.462;2024-02-04T00:42:55;69.31;54.77;77.58;;
60872;Laerm;46714;50.118;14.462;2024-02-04T00:45:21;68.51;55.52;76.26;;
60872;Laerm;46714;50.118;14.462;2024-02-04T00:47:46;67.46;57.91;72.86;;
60872;Laerm;46714;50.118;14.462;2024-02-04T00:50:12;67.04;54.85;75.88;;
60872;Laerm;46714;50.118;14.462;2024-02-04T00:52:38;67.53;55.15;79.44;;
60872;Laerm;46714;50.118;14.462;2024-02-04T00:55:03;66.83;54.79;77.49;;
60872;Laerm;46714;50.118;14.462;2024-02-04T00:57:29;64.74;53.04;73.33;;
60872;Laerm;46714;50.118;14.462;2024-02-04T00:59:54;66.11;47.28;75.39;;
60872;Laerm;46714;50.118;14.462;2024-02-04T01:02:20;68.52;55.17;75.64;;
60872;Laerm;46714;50.118;14.462;2024-02-04T01:04:45;68.54;56.50;81.64;;
60872;Laerm;46714;50.118;14.462;2024-02-04T01:07:10;68.93;53.48;75.53;;
60872;Laerm;46714;50.118;14.462;2024-02-04T01:09:36;66.05;55.05;76.12;;
60872;Laerm;46714;50.118;14.462;2024-02-04T01:12:01;64.74;46.15;77.23;;
60872;Laerm;46714;50.118;14.462;2024-02-04T01:14:27;67.02;56.11;74.93;;
60872;Laerm;46714;50.118;14.462;2024-02-04T01:16:52;68.42;52.09;78.30;;
60872;Laerm;46714;50.118;14.462;2024-02-04T01:19:17;67.08;52.06;73.79;;
60872;Laerm;46714;50.118;14.462;2024-02-04T01:21:42;67.94;50.53;76.29;;
60872;Laerm;46714;50.118;14.462;2024-02-04T01:24:09;66.63;51.35;75.42;;
60872;Laerm;46714;50.118;14.462;2024-02-04T01:26:35;67.26;53.82;76.55;;
60872;Laerm;46714;50.118;14.462;2024-02-04T01:29:00;63.76;46.30;73.47;;
60872;Laerm;46714;50.118;14.462;2024-02-04T01:31:27;67.16;50.06;75.79;;
60872;Laerm;46714;50.118;14.462;2024-02-04T01:33:52;66.35;55.70;73.86;;
60872;Laerm;46714;50.118;14.462;2024-02-04T01:36:17;66.20;48.28;75.12;;
60872;Laerm;46714;50.118;14.462;2024-02-04T01:38:43;66.25;49.46;75.31;;
60872;Laerm;46714;50.118;14.462;2024-02-04T01:41:08;67.87;49.62;78.35;;
60872;Laerm;46714;50.118;14.462;2024-02-04T01:43:34;67.34;47.93;77.78;;
60872;Laerm;46714;50.118;14.462;2024-02-04T01:45:59;65.67;47.32;74.91;;
60872;Laerm;46714;50.118;14.462;2024-02-04T01:48:24;68.93;49.81;77.89;;
60872;Laerm;46714;50.118;14.462;2024-02-04T01:50:53;67.28;57.01;74.19;;
60872;Laerm;46714;50.118;14.462;2024-02-04T01:53:21;66.46;52.19;75.94;;
60872;Laerm;46714;50.118;14.462;2024-02-04T01:55:48;65.20;49.98;76.13;;
60872;Laerm;46714;50.118;14.462;2024-02-04T01:58:14;68.00;56.05;78.52;;
60872;Laerm;46714;50.118;14.462;2024-02-04T02:00:40;64.32;48.91;72.93;;
60872;Laerm;46714;50.118;14.462;2024-02-04T02:03:06;65.80;50.03;77.36;;
60872;Laerm;46714;50.118;14.462;2024-02-04T02:05:33;67.16;52.31;75.39;;
60872;Laerm;46714;50.118;14.462;2024-02-04T02:07:59;65.96;51.82;74.39;;
60872;Laerm;46714;50.118;14.462;2024-02-04T02:10:24;65.07;42.16;75.53;;
60872;Laerm;46714;50.118;14.462;2024-02-04T02:15:21;66.22;44.23;74.56;;
60872;Laerm;46714;50.118;14.462;2024-02-04T02:17:55;66.44;48.02;77.11;;
60872;Laerm;46714;50.118;14.462;2024-02-04T02:20:32;66.72;54.60;74.98;;
60872;Laerm;46714;50.118;14.462;2024-02-04T02:23:08;66.83;51.15;72.65;;
60872;Laerm;46714;50.118;14.462;2024-02-04T02:25:36;66.27;48.02;73.35;;
60872;Laerm;46714;50.118;14.462;2024-02-04T02:28:03;66.66;48.64;75.62;;
60872;Laerm;46714;50.118;14.462;2024-02-04T02:30:28;65.47;47.96;73.01;;
60872;Laerm;46714;50.118;14.462;2024-02-04T02:32:54;65.14;50.20;73.49;;
60872;Laerm;46714;50.118;14.462;2024-02-04T02:35:20;67.30;47.59;76.59;;
60872;Laerm;46714;50.118;14.462;2024-02-04T02:38:22;66.56;48.31;77.28;;
60872;Laerm;46714;50.118;14.462;2024-02-04T02:41:03;66.41;49.44;75.82;;
60872;Laerm;46714;50.118;14.462;2024-02-04T02:43:31;66.21;50.65;73.77;;
60872;Laerm;46714;50.118;14.462;2024-02-04T02:45:57;65.99;44.73;74.91;;
60872;Laerm;46714;50.118;14.462;2024-02-04T02:48:24;66.93;51.40;77.68;;
60872;Laerm;46714;50.118;14.462;2024-02-04T02:50:49;65.81;50.65;75.81;;
60872;Laerm;46714;50.118;14.462;2024-02-04T02:53:15;65.66;49.51;72.43;;
60872;Laerm;46714;50.118;14.462;2024-02-04T02:55:41;67.27;52.64;76.54;;
60872;Laerm;46714;50.118;14.462;2024-02-04T02:58:06;65.83;50.05;75.00;;
60872;Laerm;46714;50.118;14.462;2024-02-04T03:00:32;66.94;50.20;76.91;;
60872;Laerm;46714;50.118;14.462;2024-02-04T03:02:58;67.13;50.20;79.54;;
60872;Laerm;46714;50.118;14.462;2024-02-04T03:05:23;67.09;47.63;75.99;;
60872;Laerm;46714;50.118;14.462;2024-02-04T03:07:49;67.75;46.57;78.23;;
60872;Laerm;46714;50.118;14.462;2024-02-04T03:10:14;65.93;54.31;74.24;;
60872;Laerm;46714;50.118;14.462;2024-02-04T03:12:40;67.55;54.74;79.37;;
60872;Laerm;46714;50.118;14.462;2024-02-04T03:15:05;64.75;44.80;78.09;;
60872;Laerm;46714;50.118;14.462;2024-02-04T03:17:31;65.38;51.82;73.66;;
60872;Laerm;46714;50.118;14.462;2024-02-04T03:19:56;65.89;54.99;75.81;;
60872;Laerm;46714;50.118;14.462;2024-02-04T03:22:21;66.31;48.83;74.75;;
60872;Laerm;46714;50.118;14.462;2024-02-04T03:24:48;65.66;49.93;75.74;;
60872;Laerm;46714;50.118;14.462;2024-02-04T03:27:13;67.37;57.30;73.88;;
60872;Laerm;46714;50.118;14.462;2024-02-04T03:29:39;66.73;48.60;76.63;;
60872;Laerm;46714;50.118;14.462;2024-02-04T03:32:04;66.41;49.82;74.10;;
60872;Laerm;46714;50.118;14.462;2024-02-04T03:34:30;67.17;51.41;78.99;;
60872;Laerm;46714;50.118;14.462;2024-02-04T03:36:55;67.23;54.36;74.96;;
60872;Laerm;46714;50.118;14.462;2024-02-04T03:39:21;65.16;46.50;77.37;;
60872;Laerm;46714;50.118;14.462;2024-02-04T03:41:46;65.85;52.39;75.18;;
60872;Laerm;46714;50.118;14.462;2024-02-04T03:44:11;68.37;56.56;77.78;;
60872;Laerm;46714;50.118;14.462;2024-02-04T03:46:37;66.64;51.34;76.14;;
60872;Laerm;46714;50.118;14.462;2024-02-04T03:49:06;66.61;44.47;76.54;;
60872;Laerm;46714;50.118;14.462;2024-02-04T03:51:32;65.52;51.82;73.78;;
60872;Laerm;46714;50.118;14.462;2024-02-04T03:53:57;66.32;47.88;72.91;;
60872;Laerm;46714;50.118;14.462;2024-02-04T03:56:22;63.84;46.35;76.52;;
60872;Laerm;46714;50.118;14.462;2024-02-04T03:58:48;65.84;49.77;75.14;;
60872;Laerm;46714;50.118;14.462;2024-02-04T04:01:13;64.85;49.43;72.82;;
60872;Laerm;46714;50.118;14.462;2024-02-04T04:03:42;67.43;50.31;75.99;;
60872;Laerm;46714;50.118;14.462;2024-02-04T04:06:11;64.47;46.35;74.00;;
60872;Laerm;46714;50.118;14.462;2024-02-04T04:08:37;66.96;49.02;76.50;;
60872;Laerm;46714;50.118;14.462;2024-02-04T04:11:03;68.13;58.59;75.14;;
60872;Laerm;46714;50.118;14.462;2024-02-04T04:13:28;69.16;57.50;79.52;;
60872;Laerm;46714;50.118;14.462;2024-02-04T04:15:54;67.04;49.45;77.23;;
60872;Laerm;46714;50.118;14.462;2024-02-04T04:18:21;66.83;50.07;75.43;;
60872;Laerm;46714;50.118;14.462;2024-02-04T04:20:46;66.82;50.23;78.38;;
60872;Laerm;46714;50.118;14.462;2024-02-04T04:23:14;66.18;49.65;74.82;;
60872;Laerm;46714;50.118;14.462;2024-02-04T04:25:39;66.51;52.98;77.72;;
60872;Laerm;46714;50.118;14.462;2024-02-04T04:28:05;67.20;54.83;76.07;;
60872;Laerm;46714;50.118;14.462;2024-02-04T04:30:30;64.49;48.92;73.44;;
60872;Laerm;46714;50.118;14.462;2024-02-04T04:32:56;66.85;46.93;75.48;;
60872;Laerm;46714;50.118;14.462;2024-02-04T04:35:23;66.46;55.26;77.91;;
60872;Laerm;46714;50.118;14.462;2024-02-04T04:37:48;68.08;52.72;77.59;;
60872;Laerm;46714;50.118;14.462;2024-02-04T04:40:14;68.40;52.64;75.51;;
60872;Laerm;46714;50.118;14.462;2024-02-04T04:42:39;65.57;55.05;72.51;;
60872;Laerm;46714;50.118;14.462;2024-02-04T04:45:05;68.46;56.26;79.43;;
60872;Laerm;46714;50.118;14.462;2024-02-04T04:47:33;66.81;50.14;77.36;;
60872;Laerm;46714;50.118;14.462;2024-02-04T04:49:58;68.33;52.48;76.58;;
60872;Laerm;46714;50.118;14.462;2024-02-04T04:52:23;67.92;58.30;74.94;;
60872;Laerm;46714;50.118;14.462;2024-02-04T04:54:49;66.55;51.05;76.27;;
60872;Laerm;46714;50.118;14.462;2024-02-04T04:57:14;66.64;49.82;73.24;;
60872;Laerm;46714;50.118;14.462;2024-02-04T04:59:40;65.81;52.90;71.61;;
60872;Laerm;46714;50.118;14.462;2024-02-04T05:02:05;66.64;46.64;74.36;;
60872;Laerm;46714;50.118;14.462;2024-02-04T05:04:31;67.49;58.14;76.53;;
60872;Laerm;46714;50.118;14.462;2024-02-04T05:06:56;67.47;56.97;74.97;;
60872;Laerm;46714;50.118;14.462;2024-02-04T05:09:21;68.66;58.88;74.72;;
60872;Laerm;46714;50.118;14.462;2024-02-04T05:11:47;69.41;57.31;78.72;;
60872;Laerm;46714;50.118;14.462;2024-02-04T05:14:12;69.18;51.37;77.74;;
60872;Laerm;46714;50.118;14.462;2024-02-04T05:16:38;66.96;51.07;75.57;;
60872;Laerm;46714;50.118;14.462;2024-02-04T05:19:03;69.27;54.51;78.30;;
60872;Laerm;46714;50.118;14.462;2024-02-04T05:21:28;69.65;59.13;79.18;;
60872;Laerm;46714;50.118;14.462;2024-02-04T05:23:54;68.52;60.18;74.82;;
60872;Laerm;46714;50.118;14.462;2024-02-04T05:26:19;68.84;57.05;77.92;;
60872;Laerm;46714;50.118;14.462;2024-02-04T05:28:45;68.06;60.61;75.00;;
60872;Laerm;46714;50.118;14.462;2024-02-04T05:31:10;69.40;57.25;76.74;;
60872;Laerm;46714;50.118;14.462;2024-02-04T05:33:36;69.48;61.65;75.27;;
60872;Laerm;46714;50.118;14.462;2024-02-04T05:36:01;69.00;60.15;80.86;;
60872;Laerm;46714;50.118;14.462;2024-02-04T05:38:27;68.50;58.81;76.05;;
60872;Laerm;46714;50.118;14.462;2024-02-04T05:40:52;69.71;60.36;77.73;;
60872;Laerm;46714;50.118;14.462;2024-02-04T05:43:17;70.76;59.93;85.01;;
60872;Laerm;46714;50.118;14.462;2024-02-04T05:45:43;68.28;57.15;74.72;;
60872;Laerm;46714;50.118;14.462;2024-02-04T05:48:09;68.43;55.32;75.80;;
60872;Laerm;46714;50.118;14.462;2024-02-04T05:50:34;69.76;60.96;76.16;;
60872;Laerm;46714;50.118;14.462;2024-02-04T05:53:00;69.47;56.04;79.22;;
60872;Laerm;46714;50.118;14.462;2024-02-04T05:55:25;68.05;56.17;75.91;;
60872;Laerm;46714;50.118;14.462;2024-02-04T05:57:51;69.16;55.31;75.70;;
60872;Laerm;46714;50.118;14.462;2024-02-04T06:00:16;69.08;59.21;74.65;;
60872;Laerm;46714;50.118;14.462;2024-02-04T06:02:42;68.73;59.54;74.72;;
60872;Laerm;46714;50.118;14.462;2024-02-04T06:05:09;69.73;60.84;76.37;;
60872;Laerm;46714;50.118;14.462;2024-02-04T06:07:34;70.39;61.03;81.60;;
60872;Laerm;46714;50.118;14.462;2024-02-04T06:10:00;69.01;59.97;75.79;;
60872;Laerm;46714;50.118;14.462;2024-02-04T06:12:26;70.14;58.28;79.56;;
60872;Laerm;46714;50.118;14.462;2024-02-04T06:14:51;69.95;63.60;75.53;;
60872;Laerm;46714;50.118;14.462;2024-02-04T06:17:17;70.55;59.33;82.08;;
60872;Laerm;46714;50.118;14.462;2024-02-04T06:19:42;75.69;58.12;96.32;;
60872;Laerm;46714;50.118;14.462;2024-02-04T06:22:07;68.98;57.30;76.26;;
60872;Laerm;46714;50.118;14.462;2024-02-04T06:24:33;78.49;64.33;105.68;;
60872;Laerm;46714;50.118;14.462;2024-02-04T06:26:58;70.33;63.26;75.90;;
60872;Laerm;46714;50.118;14.462;2024-02-04T06:29:24;70.00;64.04;75.61;;
60872;Laerm;46714;50.118;14.462;2024-02-04T06:31:49;70.58;62.46;77.56;;
60872;Laerm;46714;50.118;14.462;2024-02-04T06:34:15;69.39;57.62;74.75;;
60872;Laerm;46714;50.118;14.462;2024-02-04T06:36:43;70.65;61.55;78.33;;
60872;Laerm;46714;50.118;14.462;2024-02-04T06:39:12;70.34;58.03;77.53;;
60872;Laerm;46714;50.118;14.462;2024-02-04T06:41:37;71.10;58.87;82.56;;
60872;Laerm;46714;50.118;14.462;2024-02-04T06:44:03;71.41;62.83;78.58;;
60872;Laerm;46714;50.118;14.462;2024-02-04T06:46:29;71.24;63.64;79.57;;
60872;Laerm;46714;50.118;14.462;2024-02-04T06:48:55;70.13;62.28;75.89;;
60872;Laerm;46714;50.118;14.462;2024-02-04T06:51:20;71.69;64.14;79.07;;
60872;Laerm;46714;50.118;14.462;2024-02-04T06:53:46;71.94;61.60;78.52;;
60872;Laerm;46714;50.118;14.462;2024-02-04T06:56:12;71.65;62.63;77.78;;
60872;Laerm;46714;50.118;14.462;2024-02-04T06:58:38;72.00;62.90;78.26;;
60872;Laerm;46714;50.118;14.462;2024-02-04T07:01:03;71.48;59.26;79.13;;
60872;Laerm;46714;50.118;14.462;2024-02-04T07:03:29;71.60;61.41;76.88;;
60872;Laerm;46714;50.118;14.462;2024-02-04T07:05:55;72.31;64.61;79.41;;
60872;Laerm;46714;50.118;14.462;2024-02-04T07:08:20;72.13;63.95;78.24;;
60872;Laerm;46714;50.118;14.462;2024-02-04T07:10:46;71.70;64.29;79.88;;
60872;Laerm;46714;50.118;14.462;2024-02-04T07:13:11;72.44;65.82;77.43;;
60872;Laerm;46714;50.118;14.462;2024-02-04T07:15:37;71.86;63.41;77.74;;
60872;Laerm;46714;50.118;14.462;2024-02-04T07:18:04;71.29;62.93;78.03;;
60872;Laerm;46714;50.118;14.462;2024-02-04T07:20:29;72.00;63.66;78.35;;
60872;Laerm;46714;50.118;14.462;2024-02-04T07:22:55;72.52;65.81;82.81;;
60872;Laerm;46714;50.118;14.462;2024-02-04T07:25:20;71.60;62.33;76.28;;
60872;Laerm;46714;50.118;14.462;2024-02-04T07:27:46;72.93;67.17;80.55;;
60872;Laerm;46714;50.118;14.462;2024-02-04T07:30:11;72.04;64.90;77.12;;
60872;Laerm;46714;50.118;14.462;2024-02-04T07:32:37;72.01;64.19;80.19;;
60872;Laerm;46714;50.118;14.462;2024-02-04T07:35:02;71.87;64.23;77.75;;
60872;Laerm;46714;50.118;14.462;2024-02-04T07:37:28;73.01;65.16;79.59;;
60872;Laerm;46714;50.118;14.462;2024-02-04T07:39:53;83.47;64.89;102.74;;
60872;Laerm;46714;50.118;14.462;2024-02-04T07:42:19;73.35;67.50;80.39;;
60872;Laerm;46714;50.118;14.462;2024-02-04T07:44:44;71.77;64.87;76.93;;
60872;Laerm;46714;50.118;14.462;2024-02-04T07:47:10;72.06;61.94;76.99;;
60872;Laerm;46714;50.118;14.462;2024-02-04T07:49:35;72.56;65.15;78.29;;
60872;Laerm;46714;50.118;14.462;2024-02-04T07:52:00;72.85;64.58;78.36;;
60872;Laerm;46714;50.118;14.462;2024-02-04T07:54:26;71.69;64.12;76.27;;
60872;Laerm;46714;50.118;14.462;2024-02-04T07:56:51;73.38;66.53;84.12;;
60872;Laerm;46714;50.118;14.462;2024-02-04T07:59:16;73.27;65.93;82.87;;
60872;Laerm;46714;50.118;14.462;2024-02-04T08:01:42;72.98;64.33;81.44;;
60872;Laerm;46714;50.118;14.462;2024-02-04T08:04:07;71.79;65.25;76.32;;
60872;Laerm;46714;50.118;14.462;2024-02-04T08:06:36;72.96;67.07;81.03;;
60872;Laerm;46714;50.118;14.462;2024-02-04T08:09:02;72.82;63.82;78.48;;
60872;Laerm;46714;50.118;14.462;2024-02-04T08:11:28;73.49;68.21;80.27;;
60872;Laerm;46714;50.118;14.462;2024-02-04T08:13:53;73.37;64.49;78.13;;
60872;Laerm;46714;50.118;14.462;2024-02-04T08:16:19;72.54;64.15;77.04;;
60872;Laerm;46714;50.118;14.462;2024-02-04T08:18:45;72.66;64.58;78.13;;
60872;Laerm;46714;50.118;14.462;2024-02-04T08:21:11;72.38;66.25;79.02;;
60872;Laerm;46714;50.118;14.462;2024-02-04T08:23:36;72.89;65.90;77.62;;
60872;Laerm;46714;50.118;14.462;2024-02-04T08:26:02;72.44;65.66;77.69;;
60872;Laerm;46714;50.118;14.462;2024-02-04T08:28:27;72.49;66.89;77.05;;
60872;Laerm;46714;50.118;14.462;2024-02-04T08:30:53;73.57;67.57;77.55;;
60872;Laerm;46714;50.118;14.462;2024-02-04T08:33:18;72.87;63.12;77.81;;
60872;Laerm;46714;50.118;14.462;2024-02-04T08:35:44;73.25;65.47;78.03;;
60872;Laerm;46714;50.118;14.462;2024-02-04T08:38:09;73.64;68.29;89.65;;
60872;Laerm;46714;50.118;14.462;2024-02-04T08:40:35;73.66;66.87;79.27;;
60872;Laerm;46714;50.118;14.462;2024-02-04T08:43:00;73.47;65.72;79.29;;
60872;Laerm;46714;50.118;14.462;2024-02-04T08:45:25;73.34;68.09;77.49;;
60872;Laerm;46714;50.118;14.462;2024-02-04T08:47:52;73.10;67.03;77.77;;
60872;Laerm;46714;50.118;14.462;2024-02-04T08:50:17;74.21;68.36;80.78;;
60872;Laerm;46714;50.118;14.462;2024-02-04T08:52:43;73.60;68.28;77.85;;
60872;Laerm;46714;50.118;14.462;2024-02-04T08:55:08;73.75;67.55;77.76;;
60872;Laerm;46714;50.118;14.462;2024-02-04T08:57:34;73.21;65.93;79.29;;
60872;Laerm;46714;50.118;14.462;2024-02-04T08:59:59;72.83;66.20;78.06;;
60872;Laerm;46714;50.118;14.462;2024-02-04T09:02:25;73.22;67.23;77.50;;
60872;Laerm;46714;50.118;14.462;2024-02-04T09:04:50;73.79;68.28;77.55;;
60872;Laerm;46714;50.118;14.462;2024-02-04T09:07:15;73.35;66.94;79.33;;
60872;Laerm;46714;50.118;14.462;2024-02-04T09:09:41;73.75;66.83;81.04;;
60872;Laerm;46714;50.118;14.462;2024-02-04T09:12:09;73.38;67.07;78.38;;
60872;Laerm;46714;50.118;14.462;2024-02-04T09:14:35;72.80;65.73;78.41;;
60872;Laerm;46714;50.118;14.462;2024-02-04T09:17:04;73.68;67.62;77.93;;
60872;Laerm;46714;50.118;14.462;2024-02-04T09:19:30;72.48;64.29;76.74;;
60872;Laerm;46714;50.118;14.462;2024-02-04T09:21:56;74.23;69.01;78.16;;
60872;Laerm;46714;50.118;14.462;2024-02-04T09:24:22;73.20;67.67;77.51;;
60872;Laerm;46714;50.118;14.462;2024-02-04T09:26:47;73.63;65.76;79.02;;
60872;Laerm;46714;50.118;14.462;2024-02-04T09:29:12;74.21;69.32;78.02;;
60872;Laerm;46714;50.118;14.462;2024-02-04T09:31:38;72.85;67.35;80.10;;
60872;Laerm;46714;50.118;14.462;2024-02-04T09:34:03;73.58;66.94;82.39;;
60872;Laerm;46714;50.118;14.462;2024-02-04T09:36:29;78.91;67.19;100.46;;
60872;Laerm;46714;50.118;14.462;2024-02-04T09:38:54;73.54;66.35;78.24;;
60872;Laerm;46714;50.118;14.462;2024-02-04T09:41:21;73.74;67.55;79.62;;
60872;Laerm;46714;50.118;14.462;2024-02-04T09:43:49;73.93;67.17;79.24;;
60872;Laerm;46714;50.118;14.462;2024-02-04T09:46:15;74.29;68.57;78.19;;
60872;Laerm;46714;50.118;14.462;2024-02-04T09:48:42;73.80;67.89;78.33;;
60872;Laerm;46714;50.118;14.462;2024-02-04T09:51:09;73.10;65.88;77.98;;
60872;Laerm;46714;50.118;14.462;2024-02-04T09:53:36;73.82;65.26;78.99;;
60872;Laerm;46714;50.118;14.462;2024-02-04T09:56:05;73.51;66.17;77.87;;
60872;Laerm;46714;50.118;14.462;2024-02-04T09:58:32;73.20;67.64;77.23;;
60872;Laerm;46714;50.118;14.462;2024-02-04T10:00:59;73.68;65.40;78.80;;
60872;Laerm;46714;50.118;14.462;2024-02-04T10:03:25;74.17;67.24;78.65;;
60872;Laerm;46714;50.118;14.462;2024-02-04T10:05:51;73.69;64.40;77.83;;
60872;Laerm;46714;50.118;14.462;2024-02-04T10:08:16;73.29;65.76;78.22;;
60872;Laerm;46714;50.118;14.462;2024-02-04T10:10:42;75.16;68.08;93.60;;
60872;Laerm;46714;50.118;14.462;2024-02-04T10:13:10;72.90;66.69;77.24;;
60872;Laerm;46714;50.118;14.462;2024-02-04T10:15:36;74.39;68.66;79.27;;
60872;Laerm;46714;50.118;14.462;2024-02-04T10:18:08;74.01;66.35;78.69;;
60872;Laerm;46714;50.118;14.462;2024-02-04T10:20:34;74.24;69.23;78.81;;
60872;Laerm;46714;50.118;14.462;2024-02-04T10:23:00;73.99;68.39;78.08;;
60872;Laerm;46714;50.118;14.462;2024-02-04T10:25:25;73.45;67.77;77.65;;
60872;Laerm;46714;50.118;14.462;2024-02-04T10:27:51;73.80;65.18;78.08;;
60872;Laerm;46714;50.118;14.462;2024-02-04T10:30:24;73.94;66.14;79.32;;
60872;Laerm;46714;50.118;14.462;2024-02-04T10:32:53;74.17;68.34;78.59;;
60872;Laerm;46714;50.118;14.462;2024-02-04T10:35:22;73.85;65.75;82.27;;
60872;Laerm;46714;50.118;14.462;2024-02-04T10:37:52;73.87;68.67;77.42;;
60872;Laerm;46714;50.118;14.462;2024-02-04T10:40:18;73.96;67.27;79.59;;
60872;Laerm;46714;50.118;14.462;2024-02-04T10:42:44;74.23;67.82;81.21;;
60872;Laerm;46714;50.118;14.462;2024-02-04T10:45:10;73.79;67.53;77.16;;
60872;Laerm;46714;50.118;14.462;2024-02-04T10:47:39;73.71;66.68;78.35;;
60872;Laerm;46714;50.118;14.462;2024-02-04T10:50:06;73.85;65.57;78.29;;
60872;Laerm;46714;50.118;14.462;2024-02-04T10:52:38;73.91;68.05;77.92;;
60872;Laerm;46714;50.118;14.462;2024-02-04T10:55:08;73.74;69.21;78.64;;
60872;Laerm;46714;50.118;14.462;2024-02-04T10:57:38;73.74;67.97;81.07;;
60872;Laerm;46714;50.118;14.462;2024-02-04T11:00:05;73.96;69.09;78.02;;
60872;Laerm;46714;50.118;14.462;2024-02-04T11:02:37;74.22;68.51;78.44;;
60872;Laerm;46714;50.118;14.462;2024-02-04T11:05:04;73.12;66.89;77.28;;
60872;Laerm;46714;50.118;14.462;2024-02-04T11:07:34;73.75;67.87;78.71;;
60872;Laerm;46714;50.118;14.462;2024-02-04T11:10:00;73.29;65.49;78.45;;
60872;Laerm;46714;50.118;14.462;2024-02-04T11:12:28;74.80;68.30;78.38;;
60872;Laerm;46714;50.118;14.462;2024-02-04T11:14:59;73.84;68.94;78.17;;
60872;Laerm;46714;50.118;14.462;2024-02-04T11:25:57;74.08;67.47;77.99;;
60872;Laerm;46714;50.118;14.462;2024-02-04T11:28:24;74.14;68.55;79.84;;
60872;Laerm;46714;50.118;14.462;2024-02-04T11:30:51;76.71;67.97;94.30;;
60872;Laerm;46714;50.118;14.462;2024-02-04T11:33:21;73.26;67.54;77.62;;
60872;Laerm;46714;50.118;14.462;2024-02-04T11:35:58;73.83;64.61;77.70;;
60872;Laerm;46714;50.118;14.462;2024-02-04T11:38:31;74.21;68.90;78.38;;
60872;Laerm;46714;50.118;14.462;2024-02-04T11:40:56;73.81;66.66;80.04;;
60872;Laerm;46714;50.118;14.462;2024-02-04T11:43:23;74.05;68.84;77.60;;
60872;Laerm;46714;50.118;14.462;2024-02-04T11:45:52;74.41;69.14;77.74;;
60872;Laerm;46714;50.118;14.462;2024-02-04T11:48:18;74.12;67.48;79.37;;
60872;Laerm;46714;50.118;14.462;2024-02-04T11:50:52;74.12;68.87;78.62;;
60872;Laerm;46714;50.118;14.462;2024-02-04T11:53:18;73.57;65.79;78.14;;
60872;Laerm;46714;50.118;14.462;2024-02-04T11:55:44;74.46;67.07;81.77;;
60872;Laerm;46714;50.118;14.462;2024-02-04T11:58:11;74.06;68.48;77.94;;
60872;Laerm;46714;50.118;14.462;2024-02-04T12:00:37;73.93;66.05;77.82;;
60872;Laerm;46714;50.118;14.462;2024-02-04T12:03:04;74.34;67.24;79.09;;
60872;Laerm;46714;50.118;14.462;2024-02-04T12:05:37;74.16;69.21;81.53;;
60872;Laerm;46714;50.118;14.462;2024-02-04T12:08:05;73.19;67.85;78.11;;
60872;Laerm;46714;50.118;14.462;2024-02-04T12:10:32;76.81;67.59;98.25;;
60872;Laerm;46714;50.118;14.462;2024-02-04T12:13:07;73.77;68.76;78.84;;
60872;Laerm;46714;50.118;14.462;2024-02-04T12:15:36;73.91;69.53;77.41;;
60872;Laerm;46714;50.118;14.462;2024-02-04T12:20:33;73.57;67.82;79.35;;
60872;Laerm;46714;50.118;14.462;2024-02-04T12:22:58;73.27;67.73;77.16;;
60872;Laerm;46714;50.118;14.462;2024-02-04T12:25:24;73.42;67.36;77.65;;
60872;Laerm;46714;50.118;14.462;2024-02-04T12:27:52;74.26;67.43;77.86;;
60872;Laerm;46714;50.118;14.462;2024-02-04T12:30:18;74.32;68.89;77.85;;
60872;Laerm;46714;50.118;14.462;2024-02-04T12:32:43;74.17;68.68;77.36;;
60872;Laerm;46714;50.118;14.462;2024-02-04T12:35:13;80.32;69.55;104.18;;
60872;Laerm;46714;50.118;14.462;2024-02-04T12:37:51;74.05;69.59;78.12;;
60872;Laerm;46714;50.118;14.462;2024-02-04T12:40:30;73.84;68.35;77.48;;
60872;Laerm;46714;50.118;14.462;2024-02-04T12:42:57;73.74;69.40;78.32;;
60872;Laerm;46714;50.118;14.462;2024-02-04T12:45:25;74.81;69.93;78.28;;
60872;Laerm;46714;50.118;14.462;2024-02-04T12:47:51;74.35;68.38;78.31;;
60872;Laerm;46714;50.118;14.462;2024-02-04T12:50:17;75.66;69.04;96.62;;
60872;Laerm;46714;50.118;14.462;2024-02-04T12:52:44;73.79;68.90;78.06;;
60872;Laerm;46714;50.118;14.462;2024-02-04T12:55:22;74.05;65.59;77.89;;
60872;Laerm;46714;50.118;14.462;2024-02-04T12:57:48;73.67;67.91;78.94;;
60872;Laerm;46714;50.118;14.462;2024-02-04T13:00:17;74.08;68.76;77.27;;
60872;Laerm;46714;50.118;14.462;2024-02-04T13:02:43;73.45;66.59;77.99;;
60872;Laerm;46714;50.118;14.462;2024-02-04T13:05:08;74.50;69.83;79.95;;
60872;Laerm;46714;50.118;14.462;2024-02-04T13:07:34;74.46;69.43;77.82;;
60872;Laerm;46714;50.118;14.462;2024-02-04T13:09:59;74.24;68.52;78.08;;
60872;Laerm;46714;50.118;14.462;2024-02-04T13:12:25;73.86;67.56;80.24;;
60872;Laerm;46714;50.118;14.462;2024-02-04T13:14:50;73.89;66.50;78.17;;
60872;Laerm;46714;50.118;14.462;2024-02-04T13:17:16;74.17;68.09;77.65;;
60872;Laerm;46714;50.118;14.462;2024-02-04T13:19:41;73.68;68.20;77.73;;
60872;Laerm;46714;50.118;14.462;2024-02-04T13:22:07;73.88;68.35;79.74;;
60872;Laerm;46714;50.118;14.462;2024-02-04T13:24:36;74.19;70.82;78.85;;
60872;Laerm;46714;50.118;14.462;2024-02-04T13:27:02;73.65;66.62;77.61;;
60872;Laerm;46714;50.118;14.462;2024-02-04T13:29:32;74.23;69.92;78.39;;
60872;Laerm;46714;50.118;14.462;2024-02-04T13:31:58;74.40;67.61;80.61;;
60872;Laerm;46714;50.118;14.462;2024-02-04T13:34:23;74.02;67.66;78.26;;
60872;Laerm;46714;50.118;14.462;2024-02-04T13:36:49;74.24;69.03;78.31;;
60872;Laerm;46714;50.118;14.462;2024-02-04T13:39:15;74.60;69.13;80.87;;
60872;Laerm;46714;50.118;14.462;2024-02-04T13:41:43;80.73;66.91;103.22;;